createdAt,value
2018-04-12T00:02:26.486Z,55.80
2018-04-12T00:04:54.052Z,55.70
2018-04-12T00:07:21.653Z,55.60
2018-04-12T00:09:49.199Z,55.70
2018-04-12T00:12:16.814Z,56.30
2018-04-12T00:14:44.471Z,56.70
2018-04-12T00:17:12.095Z,57.40
2018-04-12T00:19:39.660Z,58.10
2018-04-12T00:22:07.247Z,58.40
2018-04-12T00:24:34.962Z,58.40
2018-04-12T00:27:03.387Z,58.80
2018-04-12T00:29:31.007Z,58.70
2018-04-12T00:31:58.563Z,58.70
2018-04-12T00:34:26.111Z,58.80
2018-04-12T00:36:53.740Z,58.80
2018-04-12T00:39:21.304Z,58.90
2018-04-12T00:41:48.867Z,59.00
2018-04-12T00:44:16.543Z,59.00
2018-04-12T00:46:44.119Z,59.10
2018-04-12T00:49:11.666Z,59.40
2018-04-12T00:51:39.239Z,59.40
2018-04-12T00:54:07.552Z,59.40
2018-04-12T00:56:35.887Z,59.40
2018-04-12T00:59:03.463Z,59.40
2018-04-12T01:01:31.048Z,59.40
2018-04-12T01:03:58.608Z,59.40
2018-04-12T01:06:26.170Z,59.40
2018-04-12T01:08:53.831Z,59.40
2018-04-12T01:11:21.390Z,59.30
2018-04-12T01:13:49.024Z,59.40
2018-04-12T01:16:16.588Z,59.40
2018-04-12T01:18:44.167Z,59.50
2018-04-12T01:21:11.786Z,59.30
2018-04-12T01:23:39.350Z,60.00
2018-04-12T01:26:06.930Z,60.50
2018-04-12T01:28:34.544Z,61.00
2018-04-12T01:31:02.126Z,61.50
2018-04-12T01:33:29.690Z,61.50
2018-04-12T01:35:57.314Z,60.20
2018-04-12T01:38:24.874Z,59.80
2018-04-12T01:40:53.195Z,59.80
2018-04-12T01:43:20.788Z,59.80
2018-04-12T01:45:48.381Z,59.80
2018-04-12T01:48:16.785Z,60.00
2018-04-12T01:50:44.345Z,59.90
2018-04-12T01:53:11.937Z,59.80
2018-04-12T01:55:39.495Z,59.40
2018-04-12T01:58:07.041Z,60.00
2018-04-12T02:00:34.633Z,60.80
2018-04-12T02:03:02.852Z,60.80
2018-04-12T02:05:30.432Z,60.80
2018-04-12T02:07:57.993Z,60.60
2018-04-12T02:10:25.574Z,60.70
2018-04-12T02:12:53.159Z,60.70
2018-04-12T02:15:20.753Z,61.00
2018-04-12T02:17:48.343Z,61.40
2018-04-12T02:20:16.694Z,61.30
2018-04-12T02:22:44.308Z,61.20
2018-04-12T02:25:11.883Z,61.30
2018-04-12T02:27:39.440Z,61.80
2018-04-12T02:30:07.058Z,62.00
2018-04-12T02:32:34.629Z,62.10
2018-04-12T02:35:02.224Z,62.70
2018-04-12T02:37:29.786Z,62.10
2018-04-12T02:39:58.151Z,62.60
2018-04-12T02:42:25.710Z,62.50
2018-04-12T02:44:53.335Z,62.90
2018-04-12T02:47:20.897Z,64.50
2018-04-12T02:49:48.449Z,63.60
2018-04-12T02:52:16.025Z,64.50
2018-04-12T02:54:43.576Z,64.80
2018-04-12T02:57:11.158Z,65.10
2018-04-12T02:59:38.716Z,65.60
2018-04-12T03:02:06.312Z,65.90
2018-04-12T03:04:34.670Z,65.30
2018-04-12T03:07:02.228Z,65.20
2018-04-12T03:09:29.842Z,66.00
2018-04-12T03:11:57.404Z,65.40
2018-04-12T03:14:24.976Z,63.90
2018-04-12T03:16:52.571Z,65.90
2018-04-12T03:19:20.177Z,65.90
2018-04-12T03:21:47.733Z,66.90
2018-04-12T03:24:15.274Z,66.60
2018-04-12T03:26:43.722Z,68.60
2018-04-12T03:29:11.276Z,68.50
2018-04-12T03:31:38.866Z,69.00
2018-04-12T03:34:06.419Z,68.70
2018-04-12T03:36:34.126Z,69.40
2018-04-12T03:39:02.433Z,67.30
2018-04-12T03:41:29.993Z,67.30
2018-04-12T03:43:57.601Z,68.30
2018-04-12T03:46:25.921Z,66.70
2018-04-12T03:48:53.465Z,66.60
2018-04-12T03:51:21.104Z,66.10
2018-04-12T03:53:49.441Z,67.10
2018-04-12T03:56:17.029Z,67.10
2018-04-12T03:58:44.586Z,67.30
2018-04-12T04:01:12.961Z,66.90
2018-04-12T04:03:40.551Z,67.60
2018-04-12T04:06:08.911Z,68.70
2018-04-12T04:08:36.462Z,68.80
2018-04-12T04:11:04.080Z,69.30
2018-04-12T04:13:31.636Z,69.30
2018-04-12T04:16:11.013Z,68.40
2018-04-12T04:18:50.253Z,69.70
2018-04-12T04:21:17.887Z,69.30
2018-04-12T04:23:45.458Z,68.70
2018-04-12T04:26:13.011Z,69.80
2018-04-12T04:28:40.566Z,70.40
2018-04-12T04:31:08.150Z,67.40
2018-04-12T04:33:35.753Z,67.70
2018-04-12T04:36:03.306Z,67.70
2018-04-12T04:38:30.963Z,67.40
2018-04-12T04:40:59.428Z,68.70
2018-04-12T04:43:26.992Z,68.60
2018-04-12T04:45:55.314Z,68.60
2018-04-12T04:48:22.982Z,68.60
2018-04-12T04:50:50.537Z,69.30
2018-04-12T04:53:18.103Z,69.60
2018-04-12T04:55:46.468Z,68.90
2018-04-12T04:58:14.039Z,68.80
2018-04-12T05:00:41.652Z,66.00
2018-04-12T05:03:09.211Z,68.70
2018-04-12T05:05:36.769Z,68.30
2018-04-12T05:08:04.357Z,68.10
2018-04-12T05:10:31.924Z,68.40
2018-04-12T05:12:59.469Z,68.60
2018-04-12T05:15:27.056Z,68.70
2018-04-12T05:17:54.631Z,69.20
2018-04-12T05:20:22.209Z,68.10
2018-04-12T05:22:49.890Z,67.80
2018-04-12T05:25:17.458Z,68.60
2018-04-12T05:27:45.057Z,68.60
2018-04-12T05:30:12.650Z,68.60
2018-04-12T05:32:40.235Z,68.00
2018-04-12T05:35:07.833Z,67.10
2018-04-12T05:37:35.427Z,67.70
2018-04-12T05:40:02.981Z,66.90
2018-04-12T05:42:30.538Z,67.90
2018-04-12T05:44:58.256Z,66.70
2018-04-12T05:47:25.803Z,66.40
2018-04-12T05:49:53.361Z,66.60
2018-04-12T05:52:20.943Z,64.10
2018-04-12T05:54:49.309Z,64.70
2018-04-12T05:57:16.861Z,64.70
2018-04-12T05:59:44.467Z,64.30
2018-04-12T06:02:12.099Z,64.60
2018-04-12T06:04:40.409Z,63.20
2018-04-12T06:07:07.952Z,63.20
2018-04-12T06:09:35.529Z,64.80
2018-04-12T06:12:03.128Z,63.80
2018-04-12T06:14:30.669Z,63.10
2018-04-12T06:16:58.240Z,63.50
2018-04-12T06:19:25.840Z,62.40
2018-04-12T06:21:54.185Z,62.20
2018-04-12T06:24:21.734Z,62.20
2018-04-12T06:26:49.313Z,61.40
2018-04-12T06:29:16.869Z,60.20
2018-04-12T06:31:44.454Z,59.90
2018-04-12T06:34:12.801Z,57.80
2018-04-12T06:36:40.358Z,57.80
2018-04-12T06:39:07.976Z,57.60
2018-04-12T06:41:35.535Z,57.10
2018-04-12T06:44:03.099Z,57.30
2018-04-12T06:46:30.699Z,56.90
2018-04-12T06:48:58.256Z,56.30
2018-04-12T06:51:26.179Z,55.30
2018-04-12T06:53:53.791Z,55.70
2018-04-12T06:56:21.352Z,55.40
2018-04-12T06:58:48.947Z,54.80
2018-04-12T07:01:16.507Z,55.10
2018-04-12T07:03:44.835Z,53.70
2018-04-12T07:06:12.459Z,53.70
2018-04-12T07:08:40.022Z,53.40
2018-04-12T07:11:08.334Z,51.10
2018-04-12T07:13:35.953Z,51.10
2018-04-12T07:16:04.286Z,50.00
2018-04-12T07:18:31.833Z,49.90
2018-04-12T07:20:59.442Z,49.30
2018-04-12T07:23:27.009Z,49.40
2018-04-12T07:25:55.336Z,47.80
2018-04-12T07:28:22.942Z,47.80
2018-04-12T07:30:51.261Z,47.20
2018-04-12T07:33:18.843Z,47.10
2018-04-12T07:35:46.395Z,46.20
2018-04-12T07:38:13.995Z,45.40
2018-04-12T07:40:41.605Z,45.40
2018-04-12T07:43:09.159Z,43.40
2018-04-12T07:45:36.726Z,43.10
2018-04-12T07:48:04.369Z,43.20
2018-04-12T07:50:31.929Z,43.40
2018-04-12T07:52:59.527Z,43.40
2018-04-12T07:55:27.105Z,42.60
2018-04-12T07:57:54.693Z,42.20
2018-04-12T08:00:23.007Z,42.00
2018-04-12T08:02:50.594Z,41.90
2018-04-12T08:05:18.194Z,40.90
2018-04-12T08:07:45.760Z,40.30
2018-04-12T08:10:13.358Z,40.80
2018-04-12T08:12:40.935Z,40.40
2018-04-12T08:15:08.491Z,39.60
2018-04-12T08:17:36.043Z,38.80
2018-04-12T08:20:03.637Z,39.60
2018-04-12T08:22:31.194Z,38.40
2018-04-12T08:24:58.775Z,38.90
2018-04-12T08:27:27.085Z,38.70
2018-04-12T08:29:54.690Z,38.10
2018-04-12T08:32:22.237Z,37.50
2018-04-12T08:34:49.778Z,36.20
2018-04-12T08:37:17.367Z,34.90
2018-04-12T08:39:44.908Z,35.70
2018-04-12T08:42:12.523Z,35.40
2018-04-12T08:44:40.071Z,34.40
2018-04-12T08:47:08.410Z,35.60
2018-04-12T08:49:36.007Z,35.60
2018-04-12T08:52:03.619Z,34.70
2018-04-12T08:54:31.231Z,34.70
2018-04-12T08:56:59.573Z,35.30
2018-04-12T08:59:27.174Z,35.30
2018-04-12T09:01:55.538Z,34.90
2018-04-12T09:04:23.234Z,34.90
2018-04-12T09:06:50.830Z,35.00
2018-04-12T09:09:18.491Z,35.10
2018-04-12T09:11:46.046Z,34.80
2018-04-12T09:14:13.662Z,34.70
2018-04-12T09:16:41.232Z,35.00
2018-04-12T09:19:08.842Z,33.90
2018-04-12T09:21:37.164Z,33.90
2018-04-12T09:24:05.489Z,33.80
2018-04-12T09:26:33.213Z,33.70
2018-04-12T09:29:00.768Z,34.30
2018-04-12T09:31:28.327Z,33.00
2018-04-12T09:33:55.931Z,35.00
2018-04-12T09:36:23.480Z,33.50
2018-04-12T09:38:51.090Z,32.80
2018-04-12T09:41:19.133Z,34.10
2018-04-12T09:43:46.671Z,34.50
2018-04-12T09:46:14.301Z,33.60
2018-04-12T09:48:41.832Z,33.40
2018-04-12T09:51:09.390Z,31.00
2018-04-12T09:53:36.992Z,30.30
2018-04-12T09:56:04.550Z,30.60
2018-04-12T09:58:32.103Z,31.30
2018-04-12T10:01:00.467Z,32.20
2018-04-12T10:03:28.819Z,32.00
2018-04-12T10:06:02.033Z,31.90
2018-04-12T10:08:29.630Z,31.50
2018-04-12T10:10:57.240Z,32.80
2018-04-12T10:13:24.873Z,31.60
2018-04-12T10:15:52.434Z,32.70
2018-04-12T10:18:20.005Z,32.30
2018-04-12T10:20:47.614Z,33.40
2018-04-12T10:23:15.239Z,32.20
2018-04-12T10:25:42.790Z,31.70
2018-04-12T10:28:10.382Z,32.30
2018-04-12T10:30:37.961Z,32.50
2018-04-12T10:33:06.302Z,31.60
2018-04-12T10:35:33.915Z,31.60
2018-04-12T10:38:01.490Z,31.40
2018-04-12T10:40:29.033Z,30.40
2018-04-12T10:42:57.283Z,31.40
2018-04-12T10:45:25.666Z,31.40
2018-04-12T10:47:54.005Z,32.10
2018-04-12T10:50:22.341Z,32.40
2018-04-12T10:52:49.956Z,32.30
2018-04-12T10:55:17.519Z,32.30
2018-04-12T10:57:45.107Z,31.40
2018-04-12T11:00:12.686Z,31.80
2018-04-12T11:02:40.294Z,31.60
2018-04-12T11:05:07.866Z,32.00
2018-04-12T11:07:36.251Z,32.90
2018-04-12T11:10:03.804Z,33.10
2018-04-12T11:12:32.193Z,32.10
2018-04-12T11:14:59.794Z,32.00
2018-04-12T11:17:27.433Z,32.10
2018-04-12T11:19:55.773Z,31.70
2018-04-12T11:22:23.358Z,31.70
2018-04-12T11:24:50.947Z,32.00
2018-04-12T11:27:18.545Z,32.60
2018-04-12T11:29:46.114Z,31.00
2018-04-12T11:32:13.713Z,31.60
2018-04-12T11:34:41.340Z,31.90
2018-04-12T11:37:08.973Z,32.30
2018-04-12T11:39:36.551Z,32.40
2018-04-12T11:42:04.102Z,32.20
2018-04-12T11:44:31.898Z,30.90
2018-04-12T11:46:59.503Z,32.00
2018-04-12T11:49:27.062Z,32.20
2018-04-12T11:51:54.625Z,32.10
2018-04-12T11:54:22.224Z,31.90
2018-04-12T11:56:49.809Z,30.50
2018-04-12T11:59:17.436Z,31.50
2018-04-12T12:01:45.045Z,30.40
2018-04-12T12:04:12.577Z,30.10
2018-04-12T12:06:40.150Z,29.90
2018-04-12T12:09:07.706Z,30.00
2018-04-12T12:11:35.294Z,29.80
2018-04-12T12:14:03.621Z,29.00
2018-04-12T12:16:31.242Z,28.90
2018-04-12T12:18:58.787Z,29.50
2018-04-12T12:21:27.100Z,29.50
2018-04-12T12:23:54.725Z,29.40
2018-04-12T12:26:23.107Z,28.20
2018-04-12T12:28:51.444Z,28.30
2018-04-12T12:31:19.000Z,28.30
2018-04-12T12:33:46.619Z,28.80
2018-04-12T12:36:14.206Z,30.80
2018-04-12T12:38:41.756Z,28.40
2018-04-12T12:41:09.365Z,28.40
2018-04-12T12:43:36.913Z,27.90
2018-04-12T12:46:04.458Z,28.80
2018-04-12T12:48:32.030Z,28.20
2018-04-12T12:50:59.568Z,28.30
2018-04-12T12:53:27.176Z,28.20
2018-04-12T12:55:54.785Z,28.70
2018-04-12T12:58:22.314Z,28.60
2018-04-12T13:00:50.670Z,28.40
2018-04-12T13:03:18.226Z,28.50
2018-04-12T13:05:45.784Z,28.70
2018-04-12T13:08:13.394Z,28.20
2018-04-12T13:10:40.949Z,28.60
2018-04-12T13:13:08.504Z,28.20
2018-04-12T13:15:36.123Z,28.20
2018-04-12T13:18:03.667Z,28.60
2018-04-12T13:20:31.255Z,28.00
2018-04-12T13:22:58.973Z,27.80
2018-04-12T13:25:26.699Z,27.90
2018-04-12T13:27:54.245Z,28.10
2018-04-12T13:30:21.856Z,28.60
2018-04-12T13:32:49.399Z,28.20
2018-04-12T13:35:16.952Z,28.20
2018-04-12T13:37:45.302Z,27.70
2018-04-12T13:40:12.838Z,27.60
2018-04-12T13:42:40.391Z,28.30
2018-04-12T13:45:07.954Z,28.30
2018-04-12T13:47:35.537Z,27.70
2018-04-12T13:50:03.206Z,27.20
2018-04-12T13:52:30.755Z,27.70
2018-04-12T13:54:58.305Z,28.20
2018-04-12T13:57:25.849Z,27.50
2018-04-12T13:59:54.242Z,27.50
2018-04-12T14:02:21.787Z,27.60
2018-04-12T14:04:49.334Z,27.60
2018-04-12T14:07:16.950Z,28.30
2018-04-12T14:09:44.718Z,28.10
2018-04-12T14:12:13.055Z,28.50
2018-04-12T14:14:40.654Z,28.30
2018-04-12T14:17:08.263Z,29.20
2018-04-12T14:19:35.799Z,28.10
2018-04-12T14:22:03.426Z,28.10
2018-04-12T14:24:30.982Z,28.10
2018-04-12T14:26:58.517Z,28.30
2018-04-12T14:29:26.121Z,29.50
2018-04-12T14:31:54.443Z,29.20
2018-04-12T14:34:22.002Z,29.20
2018-04-12T14:36:49.575Z,29.60
2018-04-12T14:39:17.153Z,29.30
2018-04-12T14:41:44.735Z,29.30
2018-04-12T14:44:13.122Z,29.20
2018-04-12T14:46:41.449Z,29.00
2018-04-12T14:49:09.027Z,28.90
2018-04-12T14:51:36.616Z,29.10
2018-04-12T14:54:04.183Z,29.10
2018-04-12T14:56:32.555Z,29.60
2018-04-12T14:59:00.886Z,29.90
2018-04-12T15:01:28.463Z,29.80
2018-04-12T15:03:56.151Z,29.60
2018-04-12T15:06:23.732Z,29.20
2018-04-12T15:08:52.104Z,29.50
2018-04-12T15:11:19.885Z,29.50
2018-04-12T15:13:48.457Z,29.50
2018-04-12T15:16:18.028Z,28.40
2018-04-12T15:18:48.016Z,28.40
2018-04-12T15:21:16.500Z,28.40
2018-04-12T15:23:44.090Z,28.70
2018-04-12T15:26:11.713Z,29.00
2018-04-12T15:28:39.288Z,29.10
2018-04-12T15:31:06.951Z,28.40
2018-04-12T15:33:34.546Z,28.10
2018-04-12T15:36:02.869Z,28.10
2018-04-12T15:38:30.467Z,28.70
2018-04-12T15:40:58.064Z,29.10
2018-04-12T15:43:26.448Z,28.90
2018-04-12T15:45:54.031Z,28.90
2018-04-12T15:48:21.610Z,29.10
2018-04-12T15:50:49.229Z,29.30
2018-04-12T15:53:17.745Z,29.20
2018-04-12T15:55:45.379Z,29.60
2018-04-12T15:58:13.208Z,29.70
2018-04-12T16:00:40.912Z,29.70
2018-04-12T16:03:08.486Z,30.00
2018-04-12T16:05:36.366Z,30.70
2018-04-12T16:08:04.027Z,30.10
2018-04-12T16:10:31.608Z,30.90
2018-04-12T16:12:59.246Z,30.20
2018-04-12T16:15:26.872Z,30.60
2018-04-12T16:17:55.262Z,31.00
2018-04-12T16:20:23.051Z,30.90
2018-04-12T16:22:50.640Z,31.00
2018-04-12T16:25:18.251Z,31.30
2018-04-12T16:27:46.437Z,31.50
2018-04-12T16:30:14.004Z,31.20
2018-04-12T16:32:41.647Z,31.60
2018-04-12T16:35:09.284Z,31.60
2018-04-12T16:37:36.922Z,32.30
2018-04-12T16:40:04.516Z,32.10
2018-04-12T16:42:33.071Z,32.10
2018-04-12T16:45:00.717Z,32.00
2018-04-12T16:47:28.331Z,32.10
2018-04-12T16:49:56.707Z,31.80
2018-04-12T16:52:24.298Z,31.80
2018-04-12T16:54:51.991Z,32.30
2018-04-12T16:57:19.605Z,33.00
2018-04-12T16:59:47.222Z,32.80
2018-04-12T17:02:14.812Z,32.60
2018-04-12T17:04:42.390Z,32.60
2018-04-12T17:07:10.747Z,33.20
2018-04-12T17:09:38.328Z,33.10
2018-04-12T17:12:05.917Z,33.40
2018-04-12T17:14:33.465Z,33.40
2018-04-12T17:17:01.067Z,33.40
2018-04-12T17:19:28.650Z,33.70
2018-04-12T17:21:56.276Z,34.00
2018-04-12T17:24:23.860Z,33.90
2018-04-12T17:26:51.622Z,34.10
2018-04-12T17:29:19.359Z,34.20
2018-04-12T17:31:48.551Z,35.00
2018-04-12T17:34:16.118Z,35.00
2018-04-12T17:36:43.705Z,36.20
2018-04-12T17:39:11.263Z,36.70
2018-04-12T17:41:38.847Z,37.40
2018-04-12T17:44:06.474Z,37.40
2018-04-12T17:46:34.044Z,38.00
2018-04-12T17:49:01.597Z,38.40
2018-04-12T17:51:29.199Z,38.80
2018-04-12T17:53:57.562Z,39.40
2018-04-12T17:56:25.163Z,39.40
2018-04-12T17:58:52.725Z,39.40
2018-04-12T18:01:20.288Z,39.90
2018-04-12T18:03:48.019Z,40.10
2018-04-12T18:06:15.569Z,40.10
2018-04-12T18:08:43.149Z,40.40
2018-04-12T18:11:11.506Z,40.70
2018-04-12T18:13:39.087Z,40.70
2018-04-12T18:16:14.050Z,40.70
2018-04-12T18:18:49.327Z,41.00
2018-04-12T18:21:26.538Z,41.00
2018-04-12T18:24:02.562Z,41.20
2018-04-12T18:26:40.682Z,41.20
2018-04-12T18:29:15.408Z,41.50
2018-04-12T18:31:50.165Z,41.70
2018-04-12T18:34:26.352Z,42.00
2018-04-12T18:37:00.790Z,42.00
2018-04-12T18:39:35.887Z,42.20
2018-04-12T18:42:12.493Z,42.30
2018-04-12T18:44:48.044Z,42.30
2018-04-12T18:47:21.860Z,42.50
2018-04-12T18:52:55.728Z,42.90
2018-04-12T18:55:26.071Z,43.10
2018-04-12T18:57:54.379Z,43.10
2018-04-12T19:00:22.583Z,43.10
2018-04-12T19:02:50.376Z,43.00
2018-04-12T19:05:17.947Z,42.90
2018-04-12T19:10:38.679Z,43.70
2018-04-12T19:13:07.025Z,43.70
2018-04-12T19:15:34.814Z,43.70
2018-04-12T19:18:03.147Z,44.00
2018-04-12T19:20:31.466Z,43.90
2018-04-12T19:22:59.048Z,44.10
2018-04-12T19:25:26.639Z,45.00
2018-04-12T19:27:54.276Z,44.40
2018-04-12T19:30:21.976Z,44.50
2018-04-12T19:32:49.565Z,44.70
2018-04-12T19:35:18.067Z,45.00
2018-04-12T19:37:45.661Z,45.70
2018-04-12T19:40:13.317Z,45.30
2018-04-12T19:42:40.921Z,45.20
2018-04-12T19:45:08.487Z,45.60
2018-04-12T19:47:36.113Z,45.50
2018-04-12T19:50:03.735Z,46.20
2018-04-12T19:52:31.331Z,45.80
2018-04-12T19:54:58.961Z,45.90
2018-04-12T19:57:26.544Z,46.20
2018-04-12T19:59:54.186Z,46.20
2018-04-12T20:02:22.335Z,46.50
2018-04-12T20:04:50.678Z,46.90
2018-04-12T20:07:18.334Z,46.90
2018-04-12T20:09:46.424Z,46.90
2018-04-12T20:12:14.019Z,47.00
2018-04-12T20:14:41.657Z,47.10
2018-04-12T20:17:09.997Z,47.20
2018-04-12T20:19:37.591Z,47.20
2018-04-12T20:22:06.046Z,47.50
2018-04-12T20:24:33.648Z,47.40
2018-04-12T20:27:02.329Z,47.60
2018-04-12T20:29:30.677Z,47.50
2018-04-12T20:31:58.245Z,47.50
2018-04-12T20:34:26.605Z,47.60
2018-04-12T20:36:54.279Z,47.60
2018-04-12T20:39:21.873Z,47.70
2018-04-12T20:41:49.768Z,47.90
2018-04-12T20:44:17.404Z,48.10
2018-04-12T20:46:44.976Z,48.10
2018-04-12T20:49:12.587Z,47.90
2018-04-12T20:51:40.269Z,48.00
2018-04-12T20:54:08.608Z,47.80
2018-04-12T20:56:36.232Z,47.80
2018-04-12T20:59:03.934Z,47.90
2018-04-12T21:01:31.841Z,47.90
2018-04-12T21:04:00.215Z,47.80
2018-04-12T21:06:28.561Z,48.30
2018-04-12T21:08:56.166Z,48.20
2018-04-12T21:11:23.798Z,48.30
2018-04-12T21:13:51.471Z,48.50
2018-04-12T21:16:20.096Z,48.60
2018-04-12T21:18:47.675Z,48.50
2018-04-12T21:21:15.295Z,48.80
2018-04-12T21:23:42.881Z,49.00
2018-04-12T21:26:10.793Z,49.10
2018-04-12T21:28:38.428Z,49.40
2018-04-12T21:31:06.065Z,49.60
2018-04-12T21:33:34.212Z,49.80
2018-04-12T21:36:01.897Z,49.80
2018-04-12T21:38:29.475Z,49.80
2018-04-12T21:40:57.145Z,50.10
2018-04-12T21:43:24.739Z,49.90
2018-04-12T21:45:53.379Z,50.50
2018-04-12T21:48:20.994Z,50.50
2018-04-12T21:50:48.604Z,50.50
2018-04-12T21:53:16.262Z,49.90
2018-04-12T21:55:43.872Z,50.40
2018-04-12T21:58:12.272Z,50.60
2018-04-12T22:00:39.936Z,51.10
2018-04-12T22:03:07.548Z,50.40
2018-04-12T22:05:35.299Z,50.90
2018-04-12T22:08:02.888Z,51.00
2018-04-12T22:10:31.314Z,51.20
2018-04-12T22:12:58.912Z,51.20
2018-04-12T22:15:27.014Z,51.20
2018-04-12T22:17:54.631Z,52.20
2018-04-12T22:20:22.225Z,51.90
2018-04-12T22:22:50.270Z,52.10
2018-04-12T22:25:18.346Z,51.80
2018-04-12T22:27:47.286Z,52.40
2018-04-12T22:30:15.046Z,52.40
2018-04-12T22:32:42.625Z,52.40
2018-04-12T22:35:10.237Z,52.20
2018-04-12T22:37:38.667Z,53.20
2018-04-12T22:40:06.610Z,53.20
2018-04-12T22:42:34.195Z,52.90
2018-04-12T22:45:01.764Z,53.60
2018-04-12T22:47:29.628Z,53.80
2018-04-12T22:49:57.237Z,53.80
2018-04-12T22:52:24.869Z,53.80
2018-04-12T22:54:52.817Z,54.40
2018-04-12T22:57:20.370Z,54.40
2018-04-12T22:59:48.933Z,54.60
2018-04-12T23:02:16.525Z,54.30
2018-04-12T23:04:44.664Z,54.30
2018-04-12T23:07:12.311Z,54.70
2018-04-12T23:09:39.946Z,55.00
2018-04-12T23:12:08.299Z,55.10
2018-04-12T23:14:35.888Z,55.10
2018-04-12T23:17:04.257Z,55.40
2018-04-12T23:19:32.689Z,55.50
2018-04-12T23:22:00.280Z,55.50
2018-04-12T23:24:27.874Z,55.00
2018-04-12T23:26:56.373Z,55.60
2018-04-12T23:29:24.139Z,55.60
2018-04-12T23:31:52.008Z,55.80
2018-04-12T23:34:19.598Z,55.50
2018-04-12T23:36:47.168Z,56.10
2018-04-12T23:39:14.865Z,55.60
2018-04-12T23:41:43.198Z,56.30
2018-04-12T23:44:11.152Z,56.30
2018-04-12T23:46:38.712Z,56.00
2018-04-12T23:49:06.702Z,56.60
2018-04-12T23:51:34.313Z,57.00
2018-04-12T23:54:02.098Z,56.10
2018-04-12T23:56:29.814Z,56.50
2018-04-12T23:58:58.174Z,57.70
